Itapecerica da Serra, Brazil
Current Conditions -  °F | °C
As of 12:00 AM on Sunday 26 Oct 2014 (Local Time) from SBSP Reporting Station
Broken Clouds Broken Clouds  
Wind Chill: 68°   Ceiling: 2200
Heat Index: 68°   Visibility: 4mi
Dew Point: 61°   Wind: 6mph
Humidity: 78%   Direction: 110°ESE
Pressure: 30.06"   Gusts: NA
Location:  23.72°S, 46.83°W
Report Text: SBSP 260200Z 11005KT 7000 BKN022 20/16 Q1018
Loading
Personal Weather Stations






























Interactive Weather Map
Tropical Storm Tracking
New forecast layout! Learn more

10-Day Weather Forecast

Advertisements
Track Severe Weather on mobile